Time;durP1;ratioP1;P1;durP2;ratioP2;P2;SDS_P1;SDS_P2;PMS_P1;PMS_P2;Temp;Humidity;BMP_temperature;BMP_pressure;BME280_temperature;BME280_humidity;BME280_pressure;Samples;Min_cycle;Max_cycle;Signal;HPM_P1;HPM_P2
2023/06/01 00:00:56;;;;;;;5.40;3.50;;;16.50;79.10;;;;;;4888150;29;20431;-84
2023/06/01 00:03:22;;;;;;;5.13;3.20;;;16.70;79.90;;;;;;4883351;29;20206;-84
2023/06/01 00:05:48;;;;;;;4.90;3.70;;;16.30;79.70;;;;;;4883364;29;20560;-85
2023/06/01 00:08:14;;;;;;;4.37;3.63;;;16.00;79.60;;;;;;4879593;29;20195;-85
2023/06/01 00:10:40;;;;;;;4.05;3.30;;;16.50;81.40;;;;;;4897905;29;20230;-84
2023/06/01 00:13:05;;;;;;;6.70;4.33;;;15.80;81.20;;;;;;4897313;29;20325;-84
2023/06/01 00:15:31;;;;;;;3.53;3.20;;;16.30;81.70;;;;;;4877967;29;20670;-85
2023/06/01 00:17:57;;;;;;;3.83;3.40;;;16.90;82.60;;;;;;4895804;29;20673;-84
2023/06/01 00:20:24;;;;;;;5.03;3.70;;;15.60;81.60;;;;;;4893422;29;20198;-85
2023/06/01 00:22:49;;;;;;;4.50;3.70;;;17.90;84.50;;;;;;4879345;29;20206;-85
2023/06/01 00:25:15;;;;;;;6.20;4.90;;;15.70;82.20;;;;;;4882138;29;20179;-84
2023/06/01 00:27:40;;;;;;;6.10;3.67;;;15.80;82.70;;;;;;4902750;29;20203;-84
2023/06/01 00:30:07;;;;;;;3.90;3.60;;;15.90;83.20;;;;;;4900560;29;20198;-84
2023/06/01 00:32:32;;;;;;;3.60;3.30;;;15.70;84.60;;;;;;4895257;29;20211;-84
2023/06/01 00:34:58;;;;;;;4.23;3.30;;;15.90;84.60;;;;;;4878743;29;20618;-85
2023/06/01 00:37:23;;;;;;;4.77;3.60;;;15.70;84.90;;;;;;4896299;29;20258;-85
2023/06/01 00:39:49;;;;;;;4.83;4.40;;;15.60;84.80;;;;;;4899982;29;20215;-84
2023/06/01 00:42:15;;;;;;;4.17;3.63;;;16.00;85.50;;;;;;4883160;29;20201;-84
2023/06/01 00:44:40;;;;;;;4.13;3.70;;;15.70;85.60;;;;;;4879833;29;20178;-85
2023/06/01 00:47:07;;;;;;;4.83;3.83;;;15.60;85.50;;;;;;4879743;29;20191;-84
2023/06/01 00:49:33;;;;;;;5.25;3.63;;;15.80;85.80;;;;;;4900453;29;20197;-84
2023/06/01 00:51:59;;;;;;;5.47;3.60;;;15.80;85.70;;;;;;4887854;29;20774;-84
2023/06/01 00:54:25;;;;;;;5.28;3.85;;;15.40;85.80;;;;;;4887823;29;20222;-85
2023/06/01 00:56:51;;;;;;;4.07;3.40;;;15.30;86.10;;;;;;4883082;29;20210;-84
2023/06/01 00:59:17;;;;;;;3.47;3.08;;;15.40;86.60;;;;;;4890375;29;20746;-85
2023/06/01 01:01:43;;;;;;;3.80;3.50;;;15.80;86.70;;;;;;4882353;29;20309;-85
2023/06/01 01:04:10;;;;;;;3.90;3.60;;;15.30;86.40;;;;;;4902125;29;20186;-84
2023/06/01 01:06:41;;;;;;;4.97;3.47;;;15.60;87.30;;;;;;4886773;29;20174;-85
2023/06/01 01:09:17;;;;;;;3.47;2.90;;;15.50;87.60;;;;;;4883361;29;20202;-84
2023/06/01 01:11:50;;;;;;;5.03;3.60;;;15.40;88.70;;;;;;4898342;29;20203;-84
2023/06/01 01:14:23;;;;;;;3.97;3.67;;;15.20;89.10;;;;;;4883419;29;20219;-85
2023/06/01 01:17:10;;;;;;;5.55;3.65;;;15.40;89.20;;;;;;4882802;29;20197;-84
2023/06/01 01:19:53;;;;;;;4.10;3.70;;;15.10;88.60;;;;;;4887363;29;20214;-84
2023/06/01 01:22:38;;;;;;;3.95;3.55;;;14.90;88.30;;;;;;4884530;29;20731;-84
2023/06/01 01:25:31;;;;;;;6.10;4.05;;;15.30;88.90;;;;;;4886072;29;20686;-85
2023/06/01 01:28:09;;;;;;;4.05;3.65;;;15.00;89.00;;;;;;4894858;29;20641;-84
2023/06/01 01:30:40;;;;;;;5.88;3.60;;;15.00;89.30;;;;;;4898493;29;20553;-84
2023/06/01 01:33:06;;;;;;;4.28;3.53;;;15.20;90.10;;;;;;4897420;29;20234;-84
2023/06/01 01:35:33;;;;;;;3.38;3.08;;;14.70;90.10;;;;;;4891093;29;20285;-84
2023/06/01 01:37:59;;;;;;;5.47;4.03;;;14.80;90.50;;;;;;4881523;29;20227;-84
2023/06/01 01:40:24;;;;;;;4.87;3.83;;;14.80;90.50;;;;;;4894275;29;20243;-84
2023/06/01 01:42:51;;;;;;;4.30;3.90;;;16.70;91.60;;;;;;4890044;29;20207;-84
2023/06/01 01:45:18;;;;;;;3.90;3.50;;;15.00;90.80;;;;;;4877159;29;20187;-85
2023/06/01 01:47:58;;;;;;;4.85;3.30;;;14.90;90.80;;;;;;4883394;29;20189;-84
2023/06/01 01:50:32;;;;;;;5.10;3.63;;;14.90;90.90;;;;;;4885050;29;20190;-85
2023/06/01 01:52:59;;;;;;;3.85;3.55;;;15.00;91.10;;;;;;4906904;29;20218;-84
2023/06/01 01:55:26;;;;;;;5.68;4.40;;;14.50;91.10;;;;;;4884519;29;20187;-85
2023/06/01 01:57:54;;;;;;;5.60;3.60;;;14.80;91.40;;;;;;4887196;29;20215;-84
2023/06/01 02:00:19;;;;;;;3.60;3.30;;;14.80;91.60;;;;;;4888762;29;20598;-84
2023/06/01 02:02:46;;;;;;;4.33;3.40;;;14.50;91.70;;;;;;4885516;29;20297;-84
2023/06/01 02:05:12;;;;;;;6.03;3.92;;;14.70;91.80;;;;;;4885561;29;20182;-83
2023/06/01 02:07:37;;;;;;;4.10;3.70;;;14.80;91.90;;;;;;4889496;29;20274;-84
2023/06/01 02:10:04;;;;;;;3.70;3.40;;;14.60;92.20;;;;;;4888461;29;20230;-84
2023/06/01 02:12:29;;;;;;;4.13;3.72;;;14.60;93.00;;;;;;4897178;29;20221;-84
2023/06/01 02:14:55;;;;;;;4.40;3.77;;;14.50;92.50;;;;;;4925372;29;20530;-84
2023/06/01 02:17:21;;;;;;;5.53;3.50;;;14.50;92.60;;;;;;4908792;29;20293;-84
2023/06/01 02:19:47;;;;;;;3.95;3.55;;;14.30;92.80;;;;;;4898479;29;20222;-84
2023/06/01 02:22:13;;;;;;;4.23;3.83;;;14.70;93.00;;;;;;4900516;29;20216;-84
2023/06/01 02:24:39;;;;;;;6.10;3.63;;;14.30;92.70;;;;;;4908730;29;20194;-86
2023/06/01 02:27:05;;;;;;;5.53;3.70;;;14.10;92.60;;;;;;4900986;29;20825;-85
2023/06/01 02:29:31;;;;;;;6.10;3.95;;;14.40;93.00;;;;;;4918409;29;20202;-85
2023/06/01 02:31:56;;;;;;;4.30;3.87;;;14.40;93.30;;;;;;4904353;29;20194;-85
2023/06/01 02:34:22;;;;;;;4.27;3.83;;;14.20;93.40;;;;;;4904325;29;20219;-86
2023/06/01 02:36:48;;;;;;;4.57;4.13;;;14.60;93.70;;;;;;4902020;29;20207;-86
2023/06/01 02:39:13;;;;;;;6.80;3.85;;;14.40;93.70;;;;;;4899758;29;20245;-85
2023/06/01 02:41:39;;;;;;;4.40;3.53;;;14.30;93.90;;;;;;4912989;29;20223;-86
2023/06/01 02:44:05;;;;;;;3.70;3.40;;;14.40;94.10;;;;;;4904815;29;20182;-86
2023/06/01 02:46:30;;;;;;;3.63;3.33;;;14.20;94.00;;;;;;4902893;29;20179;-86
2023/06/01 02:48:56;;;;;;;4.30;3.60;;;13.90;93.80;;;;;;4925148;29;20171;-86
2023/06/01 02:51:21;;;;;;;4.80;3.70;;;14.00;93.70;;;;;;4901990;29;20203;-85
2023/06/01 02:53:47;;;;;;;4.83;4.40;;;13.90;94.00;;;;;;4881685;29;20187;-86
2023/06/01 02:56:14;;;;;;;5.13;3.67;;;14.00;94.20;;;;;;4882447;29;20206;-86
2023/06/01 02:58:39;;;;;;;4.53;4.13;;;14.10;94.20;;;;;;4884141;29;20207;-85
2023/06/01 03:01:05;;;;;;;3.60;3.30;;;13.90;94.00;;;;;;4883076;29;20712;-86
2023/06/01 03:03:30;;;;;;;6.77;4.37;;;14.20;94.40;;;;;;4881947;29;20183;-86
2023/06/01 03:06:00;;;;;;;4.33;3.93;;;14.20;94.60;;;;;;4884042;29;20201;-84
2023/06/01 03:08:25;;;;;;;4.55;3.83;;;13.90;94.60;;;;;;4883910;29;20263;-84
2023/06/01 03:10:51;;;;;;;4.60;4.03;;;14.10;95.30;;;;;;4880071;29;20702;-84
2023/06/01 03:13:16;;;;;;;4.40;3.73;;;16.10;96.80;;;;;;4880088;29;20256;-86
2023/06/01 03:15:42;;;;;;;5.27;4.27;;;14.30;95.60;;;;;;4883085;29;20194;-85
2023/06/01 03:18:08;;;;;;;4.50;4.10;;;14.00;95.50;;;;;;4894939;29;20219;-83
2023/06/01 03:20:34;;;;;;;5.68;3.88;;;13.80;95.30;;;;;;4885209;29;20201;-86
2023/06/01 03:23:00;;;;;;;5.93;3.63;;;13.90;95.40;;;;;;4877895;29;20748;-86
2023/06/01 03:25:26;;;;;;;4.22;3.83;;;14.90;95.80;;;;;;4889218;29;20195;-86
2023/06/01 03:27:51;;;;;;;4.67;4.13;;;14.20;95.50;;;;;;4879625;29;20569;-84
2023/06/01 03:30:17;;;;;;;5.80;4.30;;;13.90;95.50;;;;;;4905818;29;20175;-86
2023/06/01 03:32:43;;;;;;;4.17;3.87;;;13.90;95.50;;;;;;4901657;29;20205;-86
2023/06/01 03:35:11;;;;;;;4.30;3.90;;;14.80;96.00;;;;;;4910940;29;20191;-86
2023/06/01 03:37:39;;;;;;;5.75;3.92;;;13.60;95.50;;;;;;4901104;29;20199;-85
2023/06/01 03:40:12;;;;;;;4.72;4.28;;;14.10;95.80;;;;;;4906936;29;20209;-86
2023/06/01 03:42:42;;;;;;;4.78;4.00;;;13.70;95.90;;;;;;4903568;29;20221;-84
2023/06/01 03:45:09;;;;;;;6.55;4.57;;;13.50;95.90;;;;;;4901721;29;20190;-86
2023/06/01 03:47:35;;;;;;;4.07;3.65;;;13.70;96.20;;;;;;4899111;29;20360;-86
2023/06/01 03:50:01;;;;;;;4.40;3.20;;;13.40;96.30;;;;;;4880192;29;20242;-86
2023/06/01 03:52:27;;;;;;;4.78;4.13;;;13.40;96.40;;;;;;4909181;29;20286;-84
2023/06/01 03:54:55;;;;;;;6.55;4.70;;;14.10;96.80;;;;;;4879589;29;20191;-86
2023/06/01 03:57:21;;;;;;;4.97;3.78;;;13.50;96.40;;;;;;4881183;29;20602;-86
2023/06/01 03:59:46;;;;;;;4.87;4.00;;;13.50;96.20;;;;;;4879157;29;20238;-86
2023/06/01 04:02:12;;;;;;;5.70;3.40;;;13.70;96.40;;;;;;4880360;29;20217;-86
2023/06/01 04:04:40;;;;;;;5.33;4.47;;;13.40;96.40;;;;;;4880476;29;20182;-86
2023/06/01 04:07:06;;;;;;;4.68;3.70;;;13.60;96.50;;;;;;4879325;29;20459;-86
2023/06/01 04:09:32;;;;;;;5.95;3.90;;;13.50;96.40;;;;;;4883305;29;20234;-86
2023/06/01 04:11:58;;;;;;;5.10;4.03;;;13.40;96.60;;;;;;4884117;29;20731;-82
2023/06/01 04:14:23;;;;;;;6.00;4.10;;;14.40;97.10;;;;;;4914527;29;20488;-84
2023/06/01 04:16:49;;;;;;;5.67;4.03;;;13.70;96.50;;;;;;4880123;29;20202;-80
2023/06/01 04:19:15;;;;;;;3.77;3.30;;;13.20;96.30;;;;;;4901957;29;20207;-82
2023/06/01 04:21:41;;;;;;;4.87;4.37;;;13.30;96.70;;;;;;4886192;29;20206;-80
2023/06/01 04:24:06;;;;;;;4.78;4.28;;;13.40;96.70;;;;;;4886576;29;20195;-80
2023/06/01 04:26:32;;;;;;;4.00;3.60;;;13.40;96.90;;;;;;4895246;29;20196;-80
2023/06/01 04:28:58;;;;;;;4.50;4.10;;;13.20;97.10;;;;;;4912648;29;20251;-81
2023/06/01 04:31:24;;;;;;;5.00;3.20;;;13.10;97.30;;;;;;4897934;29;20207;-83
2023/06/01 04:33:53;;;;;;;7.45;4.53;;;14.10;98.00;;;;;;4894442;29;20193;-83
2023/06/01 04:36:27;;;;;;;5.32;3.42;;;14.30;96.80;;;;;;4905369;29;20179;-81
2023/06/01 04:38:57;;;;;;;3.65;3.20;;;15.10;95.30;;;;;;4901437;29;20635;-81
2023/06/01 04:41:23;;;;;;;5.45;4.05;;;15.90;92.80;;;;;;4896541;29;20191;-81
2023/06/01 04:43:51;;;;;;;4.23;3.43;;;16.10;93.10;;;;;;4894783;29;20206;-81
2023/06/01 04:46:19;;;;;;;4.05;3.47;;;16.50;92.40;;;;;;4915351;29;20459;-81
2023/06/01 04:48:46;;;;;;;4.50;3.80;;;17.00;92.10;;;;;;4893302;29;20194;-81
2023/06/01 04:51:17;;;;;;;3.85;2.95;;;16.90;91.20;;;;;;4891994;29;20191;-81
2023/06/01 04:53:43;;;;;;;3.15;2.85;;;17.10;90.70;;;;;;4890288;29;20257;-81
2023/06/01 04:56:09;;;;;;;4.40;3.60;;;17.50;89.90;;;;;;4908696;29;20247;-81
2023/06/01 04:58:34;;;;;;;5.03;3.83;;;18.00;89.10;;;;;;4897908;29;20213;-81
2023/06/01 05:01:00;;;;;;;4.30;3.90;;;18.30;87.10;;;;;;4892127;29;20194;-82
2023/06/01 05:03:25;;;;;;;6.13;4.87;;;17.90;85.70;;;;;;4875413;29;20217;-84
2023/06/01 05:05:51;;;;;;;5.47;4.17;;;17.80;86.60;;;;;;4879193;29;20210;-84
2023/06/01 05:08:17;;;;;;;6.30;4.10;;;17.60;87.10;;;;;;4894826;29;20195;-84
2023/06/01 05:10:42;;;;;;;7.47;4.30;;;17.20;88.20;;;;;;4878201;29;20507;-84
2023/06/01 05:13:08;;;;;;;8.40;4.40;;;16.70;89.20;;;;;;4882556;29;20210;-85
2023/06/01 05:15:33;;;;;;;5.90;4.40;;;17.00;90.20;;;;;;4912769;29;20192;-85
2023/06/01 05:17:59;;;;;;;7.10;3.80;;;16.30;90.00;;;;;;4888004;29;20625;-85
2023/06/01 05:20:24;;;;;;;7.33;4.17;;;16.70;90.60;;;;;;4901833;29;20179;-84
2023/06/01 05:22:50;;;;;;;5.27;4.70;;;16.90;90.80;;;;;;4886859;29;20496;-84
2023/06/01 05:25:16;;;;;;;7.43;4.57;;;16.80;90.90;;;;;;4892236;29;20714;-85
2023/06/01 05:27:42;;;;;;;7.88;4.75;;;16.80;91.00;;;;;;4881650;29;20195;-84
2023/06/01 05:30:08;;;;;;;7.63;4.70;;;16.90;91.10;;;;;;4880205;29;20213;-87
2023/06/01 05:32:33;;;;;;;5.35;4.65;;;16.50;90.90;;;;;;4880055;29;20206;-82
2023/06/01 05:34:59;;;;;;;6.30;4.07;;;16.20;90.50;;;;;;4890763;29;20224;-85
2023/06/01 05:37:25;;;;;;;4.63;3.87;;;17.00;90.50;;;;;;4900609;29;20218;-85
2023/06/01 05:39:50;;;;;;;5.30;4.00;;;17.10;90.30;;;;;;4892034;29;20208;-85
2023/06/01 05:42:15;;;;;;;6.77;4.23;;;19.20;91.10;;;;;;4891234;29;20210;-86
2023/06/01 05:44:41;;;;;;;7.70;3.67;;;17.90;90.30;;;;;;4889774;29;20193;-85
2023/06/01 05:47:07;;;;;;;4.80;4.40;;;17.00;88.70;;;;;;4907358;29;20202;-85
2023/06/01 05:49:35;;;;;;;4.40;3.97;;;17.40;88.80;;;;;;4891656;29;20198;-83
2023/06/01 05:52:01;;;;;;;8.07;4.38;;;19.90;90.20;;;;;;4888477;29;20282;-85
2023/06/01 05:54:26;;;;;;;6.10;3.73;;;17.60;87.00;;;;;;4892722;29;20210;-85
2023/06/01 05:56:52;;;;;;;4.50;3.87;;;17.70;89.10;;;;;;4892146;29;20285;-86
2023/06/01 05:59:17;;;;;;;5.60;4.13;;;18.10;88.90;;;;;;4902124;29;20215;-86
2023/06/01 06:01:44;;;;;;;5.10;3.90;;;17.80;88.10;;;;;;4892116;29;20206;-85
2023/06/01 06:04:10;;;;;;;6.03;4.10;;;18.00;86.90;;;;;;4906199;29;20233;-84
2023/06/01 06:06:36;;;;;;;5.90;3.70;;;18.30;84.70;;;;;;4894559;29;20199;-85
2023/06/01 06:09:02;;;;;;;5.60;4.00;;;19.40;83.50;;;;;;4898457;29;20193;-84
2023/06/01 06:11:27;;;;;;;6.72;4.30;;;18.80;82.60;;;;;;4901425;29;20242;-85
2023/06/01 06:13:53;;;;;;;7.20;4.80;;;18.90;81.80;;;;;;4885285;29;20230;-85
2023/06/01 06:16:18;;;;;;;9.80;4.13;;;18.60;79.70;;;;;;4884510;29;20188;-84
2023/06/01 06:18:44;;;;;;;9.03;4.93;;;19.70;81.90;;;;;;4892879;29;20215;-85
2023/06/01 06:21:10;;;;;;;5.50;3.97;;;19.20;81.40;;;;;;4888291;29;20278;-84
2023/06/01 06:23:35;;;;;;;6.30;4.80;;;18.50;80.10;;;;;;4888099;29;20246;-83
2023/06/01 06:26:01;;;;;;;6.00;4.20;;;19.10;81.90;;;;;;4882247;29;20187;-84
2023/06/01 06:28:26;;;;;;;8.50;4.60;;;19.10;79.30;;;;;;4887401;29;20197;-82
2023/06/01 06:30:52;;;;;;;7.47;4.50;;;19.10;80.10;;;;;;4879665;29;20673;-82
2023/06/01 06:33:17;;;;;;;8.57;5.60;;;19.10;79.20;;;;;;4890457;29;20506;-82
2023/06/01 06:35:43;;;;;;;9.10;5.10;;;19.30;79.10;;;;;;4880111;29;20206;-83
2023/06/01 06:38:11;;;;;;;6.27;4.30;;;19.40;78.30;;;;;;4880638;29;20233;-83
2023/06/01 06:40:36;;;;;;;7.88;3.78;;;19.40;78.60;;;;;;4897481;29;20176;-84
2023/06/01 06:43:02;;;;;;;6.40;3.93;;;19.40;79.10;;;;;;4883568;29;20211;-83
2023/06/01 06:45:28;;;;;;;5.13;4.10;;;19.30;77.40;;;;;;4885729;29;20266;-84
2023/06/01 06:47:53;;;;;;;7.13;3.83;;;20.00;76.60;;;;;;4888908;29;20187;-83
2023/06/01 06:50:20;;;;;;;5.60;4.40;;;20.30;73.90;;;;;;4890312;29;20187;-83
2023/06/01 06:52:45;;;;;;;5.82;4.22;;;20.40;71.60;;;;;;4909986;29;20202;-84
2023/06/01 06:55:11;;;;;;;4.80;4.10;;;21.00;72.50;;;;;;4885831;29;20179;-86
2023/06/01 06:57:38;;;;;;;5.10;3.67;;;21.10;70.20;;;;;;4880714;29;20205;-84
2023/06/01 07:00:06;;;;;;;3.97;3.55;;;21.30;69.70;;;;;;4876576;29;20187;-83
2023/06/01 07:02:31;;;;;;;5.13;4.10;;;21.10;67.90;;;;;;4897432;29;20267;-85
2023/06/01 07:04:57;;;;;;;4.53;4.13;;;21.80;66.40;;;;;;4881087;29;20443;-86
2023/06/01 07:07:22;;;;;;;6.20;3.90;;;23.40;62.40;;;;;;4883979;29;20188;-86
2023/06/01 07:09:48;;;;;;;4.30;3.90;;;25.10;59.40;;;;;;4902106;29;20193;-86
2023/06/01 07:12:14;;;;;;;6.87;4.13;;;27.70;54.00;;;;;;4885534;29;20222;-86
2023/06/01 07:14:40;;;;;;;4.93;4.10;;;29.40;49.90;;;;;;4882167;29;20194;-87
2023/06/01 07:17:05;;;;;;;5.47;4.13;;;29.60;49.10;;;;;;4883680;29;20835;-86
2023/06/01 07:19:32;;;;;;;7.77;4.43;;;31.40;45.30;;;;;;4891165;29;20226;-86
2023/06/01 07:22:01;;;;;;;6.20;4.10;;;32.70;41.40;;;;;;4908107;29;20203;-86
2023/06/01 07:24:27;;;;;;;7.43;4.60;;;33.60;40.20;;;;;;4910161;29;20467;-87
2023/06/01 07:26:55;;;;;;;4.43;4.03;;;33.30;36.80;;;;;;4881152;29;20816;-86
2023/06/01 07:29:21;;;;;;;6.63;4.37;;;33.80;37.40;;;;;;4879999;29;20229;-85
2023/06/01 07:31:47;;;;;;;5.13;4.27;;;33.30;36.40;;;;;;4883851;29;20487;-85
2023/06/01 07:34:13;;;;;;;5.37;4.70;;;33.00;38.90;;;;;;4888690;29;21001;-85
2023/06/01 07:36:40;;;;;;;7.40;4.70;;;33.30;37.20;;;;;;4889401;29;21008;-85
2023/06/01 07:39:09;;;;;;;4.97;4.50;;;34.80;36.60;;;;;;4897012;29;20206;-86
2023/06/01 07:41:34;;;;;;;6.23;4.37;;;35.70;34.50;;;;;;4884331;29;20830;-84
2023/06/01 07:44:00;;;;;;;7.60;4.70;;;36.60;33.10;;;;;;4900214;29;20443;-84
2023/06/01 07:46:25;;;;;;;7.07;4.97;;;37.70;31.20;;;;;;4886071;29;20179;-84
2023/06/01 07:48:51;;;;;;;5.70;4.43;;;38.00;31.10;;;;;;4897467;29;20223;-83
2023/06/01 07:51:17;;;;;;;4.90;4.40;;;37.20;31.60;;;;;;4904817;29;20179;-85
2023/06/01 07:53:43;;;;;;;6.27;4.90;;;37.20;31.60;;;;;;4926231;29;20203;-84
2023/06/01 07:56:08;;;;;;;6.03;4.43;;;35.50;31.20;;;;;;4881015;29;20346;-83
2023/06/01 07:58:34;;;;;;;5.87;5.30;;;35.50;32.80;;;;;;4888826;29;20470;-84
2023/06/01 08:01:00;;;;;;;6.50;5.10;;;35.10;34.20;;;;;;4896208;29;20373;-84
2023/06/01 08:03:25;;;;;;;5.40;5.00;;;35.20;32.70;;;;;;4897704;29;20202;-84
2023/06/01 08:05:57;;;;;;;6.07;5.20;;;34.60;33.30;;;;;;4896533;29;20221;-84
2023/06/01 08:08:23;;;;;;;5.07;4.10;;;35.40;32.60;;;;;;4907956;29;20174;-83
2023/06/01 08:10:49;;;;;;;5.13;4.03;;;35.90;32.50;;;;;;4888210;29;20451;-83
2023/06/01 08:13:15;;;;;;;5.23;4.67;;;35.70;33.30;;;;;;4906701;29;20478;-83
2023/06/01 08:15:42;;;;;;;6.40;5.53;;;36.20;32.10;;;;;;4885244;29;20449;-83
2023/06/01 08:18:08;;;;;;;6.13;5.30;;;36.10;32.20;;;;;;4888462;29;20665;-84
2023/06/01 08:20:35;;;;;;;6.93;4.57;;;35.70;32.80;;;;;;4899278;29;20454;-83
2023/06/01 08:23:02;;;;;;;6.37;4.57;;;35.10;33.40;;;;;;4882939;29;20574;-84
2023/06/01 08:25:28;;;;;;;5.87;4.10;;;36.30;32.90;;;;;;4886475;29;20435;-83
2023/06/01 08:27:54;;;;;;;5.30;4.90;;;35.60;32.60;;;;;;4888541;29;20515;-84
2023/06/01 08:30:20;;;;;;;8.33;6.17;;;36.50;31.50;;;;;;4902669;29;20453;-84
2023/06/01 08:32:45;;;;;;;6.43;5.00;;;37.00;30.60;;;;;;4900438;29;20271;-83
2023/06/01 08:35:11;;;;;;;8.37;7.50;;;37.60;30.00;;;;;;4900308;29;20202;-84
2023/06/01 08:37:36;;;;;;;7.70;4.87;;;38.70;30.30;;;;;;4910700;29;20210;-82
2023/06/01 08:40:04;;;;;;;6.87;5.30;;;38.10;29.40;;;;;;4890319;29;20550;-82
2023/06/01 08:42:39;;;;;;;9.00;4.93;;;35.30;29.30;;;;;;4887540;29;20607;-82
2023/06/01 08:45:06;;;;;;;5.90;5.03;;;35.90;31.10;;;;;;4884285;29;20483;-80
2023/06/01 08:47:32;;;;;;;6.13;4.90;;;35.30;30.90;;;;;;4887650;29;20538;-80
2023/06/01 08:49:59;;;;;;;10.50;5.27;;;36.30;31.20;;;;;;4900826;29;20475;-80
2023/06/01 08:52:31;;;;;;;6.00;5.40;;;37.00;30.30;;;;;;4887717;29;20236;-80
2023/06/01 08:54:59;;;;;;;5.57;5.07;;;37.20;30.10;;;;;;4902558;29;21014;-80
2023/06/01 08:57:24;;;;;;;5.77;5.03;;;37.90;29.30;;;;;;4888732;29;20459;-80
2023/06/01 08:59:50;;;;;;;5.33;4.83;;;37.10;29.50;;;;;;4891601;29;21127;-80
2023/06/01 09:02:16;;;;;;;5.77;4.90;;;37.50;29.90;;;;;;4890728;29;20223;-80
2023/06/01 09:04:44;;;;;;;8.03;5.00;;;36.30;29.40;;;;;;4906260;29;20205;-80
2023/06/01 09:07:13;;;;;;;6.73;5.73;;;36.10;31.10;;;;;;4898989;29;20434;-80
2023/06/01 09:09:39;;;;;;;9.63;6.03;;;36.90;30.50;;;;;;4905199;29;20806;-80
2023/06/01 09:12:27;;;;;;;6.00;5.40;;;37.50;30.00;;;;;;4901621;29;20502;-82
2023/06/01 09:15:12;;;;;;;5.23;4.80;;;34.90;30.80;;;;;;4884834;29;20446;-82
2023/06/01 09:17:41;;;;;;;6.63;4.93;;;35.60;31.30;;;;;;4883591;29;20447;-82
2023/06/01 09:20:14;;;;;;;6.80;5.70;;;36.20;30.80;;;;;;4903189;29;20959;-82
2023/06/01 09:22:45;;;;;;;5.97;5.23;;;36.30;30.80;;;;;;4882003;29;21019;-82
2023/06/01 09:25:15;;;;;;;7.47;5.10;;;36.20;30.50;;;;;;4904128;29;20483;-82
2023/06/01 09:27:46;;;;;;;5.70;5.20;;;35.80;30.40;;;;;;4882888;29;20470;-82
2023/06/01 09:30:13;;;;;;;5.67;5.07;;;36.50;30.50;;;;;;4898856;29;20479;-82
2023/06/01 09:32:39;;;;;;;6.10;5.50;;;37.00;30.00;;;;;;4889289;29;21071;-82
2023/06/01 09:35:07;;;;;;;6.40;5.80;;;37.70;29.40;;;;;;4886818;29;20459;-82
2023/06/01 09:37:34;;;;;;;5.60;5.10;;;37.60;29.60;;;;;;4881380;29;20552;-82
2023/06/01 09:40:01;;;;;;;5.87;5.37;;;37.40;29.50;;;;;;4886244;29;20526;-82
2023/06/01 09:42:34;;;;;;;5.83;5.33;;;38.10;29.50;;;;;;4880601;29;20478;-82
2023/06/01 09:45:20;;;;;;;6.70;5.20;;;38.30;29.00;;;;;;4895512;29;20430;-82
2023/06/01 09:47:46;;;;;;;5.40;4.97;;;37.60;29.50;;;;;;4895003;29;20440;-82
2023/06/01 09:50:32;;;;;;;5.87;5.30;;;37.40;29.60;;;;;;4888174;29;20435;-82
2023/06/01 09:52:58;;;;;;;5.93;5.30;;;37.70;29.60;;;;;;4889502;29;20458;-82
2023/06/01 09:55:24;;;;;;;6.13;5.53;;;37.80;29.30;;;;;;4896741;29;20459;-82
2023/06/01 09:57:50;;;;;;;8.90;5.87;;;37.80;29.60;;;;;;4915637;29;20439;-83
2023/06/01 10:00:24;;;;;;;6.60;5.60;;;38.90;29.20;;;;;;4879183;29;20880;-83
2023/06/01 10:02:52;;;;;;;7.83;5.47;;;38.60;28.90;;;;;;4898535;29;20213;-83
2023/06/01 10:05:17;;;;;;;6.10;5.50;;;39.90;28.00;;;;;;4883550;29;21007;-82
2023/06/01 10:07:44;;;;;;;5.60;5.10;;;39.10;28.10;;;;;;4882773;29;20452;-82
2023/06/01 10:10:14;;;;;;;5.90;5.40;;;38.50;28.70;;;;;;4884790;29;20187;-82
2023/06/01 10:12:40;;;;;;;5.77;5.20;;;38.40;28.90;;;;;;4898668;29;20554;-84
2023/06/01 10:15:06;;;;;;;6.53;5.80;;;38.90;29.00;;;;;;4881719;29;20502;-83
2023/06/01 10:17:33;;;;;;;5.67;5.17;;;38.90;28.10;;;;;;4893641;29;20192;-83
2023/06/01 10:20:01;;;;;;;6.53;5.87;;;38.70;28.70;;;;;;4884492;29;20917;-82
2023/06/01 10:22:28;;;;;;;6.60;6.00;;;37.70;29.40;;;;;;4883428;29;20451;-83
2023/06/01 10:25:00;;;;;;;5.50;5.00;;;37.00;30.00;;;;;;4890711;29;20467;-82
2023/06/01 10:27:41;;;;;;;6.20;5.70;;;35.40;30.70;;;;;;4891314;29;20439;-82
2023/06/01 10:30:09;;;;;;;6.60;6.00;;;34.50;32.50;;;;;;4903913;29;20467;-82
2023/06/01 10:32:37;;;;;;;8.60;5.97;;;33.50;33.60;;;;;;4898573;29;21071;-82
2023/06/01 10:35:04;;;;;;;8.73;6.90;;;33.00;33.90;;;;;;4893880;29;20443;-82
2023/06/01 10:37:30;;;;;;;5.97;5.40;;;32.50;34.50;;;;;;4888855;29;20673;-82
2023/06/01 10:40:14;;;;;;;5.87;4.80;;;33.50;34.40;;;;;;4904335;29;20518;-82
2023/06/01 10:42:40;;;;;;;5.23;4.73;;;32.60;33.80;;;;;;4890838;29;20275;-82
2023/06/01 10:45:07;;;;;;;5.10;4.60;;;32.50;32.80;;;;;;4904857;29;20473;-80
2023/06/01 10:47:32;;;;;;;6.67;6.03;;;33.40;32.90;;;;;;4884767;29;20240;-81
2023/06/01 10:49:58;;;;;;;6.53;5.33;;;34.20;32.30;;;;;;4904361;29;20594;-82
2023/06/01 10:52:23;;;;;;;7.57;6.57;;;34.80;32.00;;;;;;4885153;29;20229;-85
2023/06/01 10:55:36;;;;;;;8.73;6.90;;;35.10;31.20;;;;;;4887717;29;20746;-81
2023/06/01 10:58:21;;;;;;;8.80;6.40;;;35.40;31.10;;;;;;4894482;29;20211;-81
2023/06/01 11:00:47;;;;;;;8.63;6.03;;;35.90;30.10;;;;;;4893246;29;20451;-81
2023/06/01 11:03:12;;;;;;;7.80;6.10;;;37.00;29.60;;;;;;4895495;29;20581;-81
2023/06/01 11:05:48;;;;;;;7.00;5.40;;;38.00;29.00;;;;;;4886558;29;20470;-81
2023/06/01 11:08:17;;;;;;;6.27;5.87;;;37.40;28.40;;;;;;4881643;29;20193;-81
2023/06/01 11:11:09;;;;;;;7.37;5.17;;;37.50;28.50;;;;;;4885860;29;20439;-81
2023/06/01 11:13:37;;;;;;;8.37;7.67;;;37.20;28.80;;;;;;4884275;29;20449;-81
2023/06/01 11:16:20;;;;;;;6.13;5.57;;;37.20;28.70;;;;;;4885721;29;20510;-81
2023/06/01 11:18:58;;;;;;;5.87;5.37;;;36.60;29.50;;;;;;4888666;29;20470;-81
2023/06/01 11:21:29;;;;;;;5.97;5.50;;;36.70;29.90;;;;;;4902488;29;20451;-83
2023/06/01 11:23:57;;;;;;;5.90;5.30;;;36.30;29.50;;;;;;4883871;29;20447;-83
2023/06/01 11:26:41;;;;;;;7.90;5.80;;;35.10;29.60;;;;;;4889352;29;20446;-82
2023/06/01 11:29:11;;;;;;;6.77;6.13;;;34.70;30.20;;;;;;4898586;29;20455;-82
2023/06/01 11:31:58;;;;;;;6.67;6.00;;;35.50;30.80;;;;;;4889697;29;20462;-83
2023/06/01 11:34:51;;;;;;;6.97;6.37;;;35.70;30.80;;;;;;4904238;29;20495;-80
2023/06/01 11:37:18;;;;;;;6.13;5.63;;;35.20;30.80;;;;;;4896399;29;20462;-82
2023/06/01 11:39:47;;;;;;;6.50;5.67;;;35.80;30.20;;;;;;4917242;29;20474;-82
2023/06/01 11:42:14;;;;;;;7.80;5.33;;;35.30;30.30;;;;;;4902602;29;20459;-82
2023/06/01 11:44:41;;;;;;;7.67;6.00;;;34.90;30.50;;;;;;4907500;29;20430;-85
2023/06/01 11:47:08;;;;;;;8.20;5.40;;;34.00;31.20;;;;;;4897335;29;20482;-80
2023/06/01 11:49:44;;;;;;;5.63;4.60;;;33.10;32.10;;;;;;4895345;29;20455;-81
2023/06/01 11:52:10;;;;;;;5.93;5.40;;;32.30;32.40;;;;;;4893455;29;20470;-81
2023/06/01 11:54:37;;;;;;;6.50;5.40;;;31.70;33.30;;;;;;4909260;29;20889;-82
2023/06/01 11:57:03;;;;;;;7.30;5.23;;;31.30;34.70;;;;;;4886669;29;20974;-81
2023/06/01 11:59:43;;;;;;;7.73;5.70;;;30.80;35.20;;;;;;4890108;29;20461;-82
2023/06/01 12:02:21;;;;;;;5.90;5.30;;;30.40;36.50;;;;;;4898252;29;20487;-82
2023/06/01 12:05:05;;;;;;;9.90;6.87;;;29.90;37.80;;;;;;4889537;29;20488;-82
2023/06/01 12:07:31;;;;;;;5.80;5.30;;;29.50;37.60;;;;;;4886695;29;20882;-81
2023/06/01 12:10:00;;;;;;;6.73;5.70;;;29.80;38.30;;;;;;4884861;29;20474;-82
2023/06/01 12:12:26;;;;;;;5.57;5.07;;;29.20;38.40;;;;;;4890877;29;20310;-81
2023/06/01 12:14:53;;;;;;;6.07;5.50;;;29.00;37.70;;;;;;4892513;29;20595;-82
2023/06/01 12:17:19;;;;;;;6.00;5.40;;;28.90;37.80;;;;;;4887410;29;20990;-83
2023/06/01 12:19:47;;;;;;;5.47;4.97;;;28.80;37.80;;;;;;4882805;29;20501;-83
2023/06/01 12:22:13;;;;;;;6.20;5.60;;;29.30;38.90;;;;;;4895343;29;20225;-83
2023/06/01 12:24:38;;;;;;;5.30;4.80;;;28.60;37.40;;;;;;4887683;29;20576;-83
2023/06/01 12:27:14;;;;;;;5.77;5.20;;;29.50;38.10;;;;;;4893776;29;20469;-84
2023/06/01 12:29:46;;;;;;;5.27;4.87;;;29.20;38.30;;;;;;4895275;29;20199;-83
2023/06/01 12:32:14;;;;;;;6.20;5.70;;;28.70;36.80;;;;;;4902558;29;20473;-83
2023/06/01 12:34:47;;;;;;;5.77;5.27;;;28.40;36.30;;;;;;4890440;29;20445;-84
2023/06/01 12:37:16;;;;;;;6.97;5.03;;;28.40;36.30;;;;;;4885696;29;20548;-86
2023/06/01 12:39:42;;;;;;;5.97;5.40;;;28.80;36.10;;;;;;4893406;29;20519;-85
2023/06/01 12:42:09;;;;;;;6.27;5.63;;;28.70;35.50;;;;;;4914887;29;20531;-83
2023/06/01 12:44:35;;;;;;;7.10;4.90;;;28.30;35.20;;;;;;4897926;29;20191;-85
2023/06/01 12:47:02;;;;;;;6.00;5.40;;;28.70;35.40;;;;;;4901761;29;20461;-82
2023/06/01 12:49:28;;;;;;;6.17;5.57;;;28.20;35.40;;;;;;4888867;29;20189;-82
2023/06/01 12:51:54;;;;;;;6.10;5.17;;;28.30;36.80;;;;;;4884420;29;21026;-82